sensor_id;sensor_type;location;lat;lon;timestamp;pressure;altitude;pressure_sealevel;temperature;humidity
61035;BME280;46916;40.564;-7.958;2023-06-14T00:00:41;97443.13;;;18.66;76.10
61035;BME280;46916;40.564;-7.958;2023-06-14T00:02:43;97439.00;;;18.63;76.35
61035;BME280;46916;40.564;-7.958;2023-06-14T00:04:44;97437.50;;;18.61;76.50
61035;BME280;46916;40.564;-7.958;2023-06-14T00:06:46;97444.09;;;18.65;76.40
61035;BME280;46916;40.564;-7.958;2023-06-14T00:08:47;97444.56;;;18.68;76.23
61035;BME280;46916;40.564;-7.958;2023-06-14T00:10:48;97437.44;;;18.69;76.27
61035;BME280;46916;40.564;-7.958;2023-06-14T00:12:49;97440.78;;;18.71;76.44
61035;BME280;46916;40.564;-7.958;2023-06-14T00:14:49;97436.91;;;18.73;76.19
61035;BME280;46916;40.564;-7.958;2023-06-14T00:16:50;97446.34;;;18.76;76.17
61035;BME280;46916;40.564;-7.958;2023-06-14T00:18:52;97440.03;;;18.77;76.29
61035;BME280;46916;40.564;-7.958;2023-06-14T00:21:11;97445.34;;;18.77;76.26
61035;BME280;46916;40.564;-7.958;2023-06-14T00:23:12;97444.72;;;18.75;76.45
61035;BME280;46916;40.564;-7.958;2023-06-14T00:25:13;97442.69;;;18.77;75.89
61035;BME280;46916;40.564;-7.958;2023-06-14T00:27:14;97449.81;;;18.76;76.30
61035;BME280;46916;40.564;-7.958;2023-06-14T00:29:14;97437.56;;;18.75;76.24
61035;BME280;46916;40.564;-7.958;2023-06-14T00:31:15;97439.22;;;18.76;76.48
61035;BME280;46916;40.564;-7.958;2023-06-14T00:33:16;97441.72;;;18.78;76.49
61035;BME280;46916;40.564;-7.958;2023-06-14T00:35:17;97442.06;;;18.75;76.39
61035;BME280;46916;40.564;-7.958;2023-06-14T00:37:18;97435.94;;;18.74;76.38
61035;BME280;46916;40.564;-7.958;2023-06-14T00:39:19;97438.94;;;18.71;76.53
61035;BME280;46916;40.564;-7.958;2023-06-14T00:41:19;97434.66;;;18.70;76.65
61035;BME280;46916;40.564;-7.958;2023-06-14T00:43:20;97433.13;;;18.68;76.47
61035;BME280;46916;40.564;-7.958;2023-06-14T00:45:20;97428.56;;;18.62;76.78
61035;BME280;46916;40.564;-7.958;2023-06-14T00:47:21;97429.63;;;18.52;76.90
61035;BME280;46916;40.564;-7.958;2023-06-14T00:49:23;97424.31;;;18.52;77.04
61035;BME280;46916;40.564;-7.958;2023-06-14T00:51:24;97422.88;;;18.50;76.92
61035;BME280;46916;40.564;-7.958;2023-06-14T00:53:25;97433.00;;;18.46;77.01
61035;BME280;46916;40.564;-7.958;2023-06-14T00:55:26;97430.31;;;18.31;77.49
61035;BME280;46916;40.564;-7.958;2023-06-14T00:57:29;97433.84;;;18.24;78.02
61035;BME280;46916;40.564;-7.958;2023-06-14T00:59:30;97424.78;;;18.18;78.05
61035;BME280;46916;40.564;-7.958;2023-06-14T01:01:30;97429.00;;;18.13;78.24
61035;BME280;46916;40.564;-7.958;2023-06-14T01:03:53;97431.16;;;18.09;78.42
61035;BME280;46916;40.564;-7.958;2023-06-14T01:10:45;97440.41;;;18.13;78.45
61035;BME280;46916;40.564;-7.958;2023-06-14T01:15:04;97447.75;;;18.03;78.49
61035;BME280;46916;40.564;-7.958;2023-06-14T01:17:07;97438.34;;;18.00;78.73
61035;BME280;46916;40.564;-7.958;2023-06-14T01:19:16;97442.94;;;18.06;78.74
61035;BME280;46916;40.564;-7.958;2023-06-14T01:21:21;97436.53;;;18.01;79.07
61035;BME280;46916;40.564;-7.958;2023-06-14T01:23:23;97439.16;;;18.01;79.01
61035;BME280;46916;40.564;-7.958;2023-06-14T01:25:24;97443.75;;;18.07;78.95
61035;BME280;46916;40.564;-7.958;2023-06-14T01:27:25;97441.00;;;18.00;79.01
61035;BME280;46916;40.564;-7.958;2023-06-14T01:29:29;97442.81;;;18.00;79.01
61035;BME280;46916;40.564;-7.958;2023-06-14T01:31:33;97439.53;;;17.98;79.13
61035;BME280;46916;40.564;-7.958;2023-06-14T01:33:41;97448.28;;;17.98;79.18
61035;BME280;46916;40.564;-7.958;2023-06-14T01:35:44;97445.94;;;18.03;78.96
61035;BME280;46916;40.564;-7.958;2023-06-14T01:38:03;97433.00;;;18.09;78.63
61035;BME280;46916;40.564;-7.958;2023-06-14T01:40:07;97431.63;;;18.13;78.56
61035;BME280;46916;40.564;-7.958;2023-06-14T01:42:10;97433.75;;;18.17;78.42
61035;BME280;46916;40.564;-7.958;2023-06-14T01:44:12;97438.69;;;18.20;78.36
61035;BME280;46916;40.564;-7.958;2023-06-14T01:46:15;97440.34;;;18.21;78.28
61035;BME280;46916;40.564;-7.958;2023-06-14T01:48:34;97442.81;;;18.23;78.40
61035;BME280;46916;40.564;-7.958;2023-06-14T01:50:37;97433.84;;;18.24;78.32
61035;BME280;46916;40.564;-7.958;2023-06-14T01:52:56;97438.31;;;18.23;78.37
61035;BME280;46916;40.564;-7.958;2023-06-14T01:54:57;97439.53;;;18.21;78.57
61035;BME280;46916;40.564;-7.958;2023-06-14T01:56:58;97443.34;;;18.18;78.66
61035;BME280;46916;40.564;-7.958;2023-06-14T01:58:59;97434.38;;;18.19;78.68
61035;BME280;46916;40.564;-7.958;2023-06-14T02:01:00;97433.56;;;18.19;78.55
61035;BME280;46916;40.564;-7.958;2023-06-14T02:03:02;97428.66;;;18.07;78.83
61035;BME280;46916;40.564;-7.958;2023-06-14T02:05:04;97436.69;;;17.99;79.44
61035;BME280;46916;40.564;-7.958;2023-06-14T02:07:05;97440.69;;;17.95;79.79
61035;BME280;46916;40.564;-7.958;2023-06-14T02:09:07;97435.91;;;17.91;80.13
61035;BME280;46916;40.564;-7.958;2023-06-14T02:11:08;97439.56;;;17.90;80.24
61035;BME280;46916;40.564;-7.958;2023-06-14T02:13:09;97443.88;;;17.91;80.25
61035;BME280;46916;40.564;-7.958;2023-06-14T02:15:10;97438.75;;;17.89;80.33
61035;BME280;46916;40.564;-7.958;2023-06-14T02:17:17;97436.72;;;17.91;80.28
61035;BME280;46916;40.564;-7.958;2023-06-14T02:19:19;97439.22;;;17.93;80.26
61035;BME280;46916;40.564;-7.958;2023-06-14T02:21:38;97441.34;;;17.97;80.15
61035;BME280;46916;40.564;-7.958;2023-06-14T02:23:39;97448.28;;;17.98;80.19
61035;BME280;46916;40.564;-7.958;2023-06-14T02:25:40;97445.44;;;18.00;80.21
61035;BME280;46916;40.564;-7.958;2023-06-14T02:27:42;97448.56;;;18.03;80.21
61035;BME280;46916;40.564;-7.958;2023-06-14T02:29:44;97451.88;;;18.05;80.13
61035;BME280;46916;40.564;-7.958;2023-06-14T02:31:45;97442.94;;;18.06;80.02
61035;BME280;46916;40.564;-7.958;2023-06-14T02:33:48;97441.44;;;18.04;80.12
61035;BME280;46916;40.564;-7.958;2023-06-14T02:35:49;97445.94;;;18.03;80.35
61035;BME280;46916;40.564;-7.958;2023-06-14T02:37:50;97444.94;;;18.04;80.39
61035;BME280;46916;40.564;-7.958;2023-06-14T02:39:51;97441.28;;;18.05;80.10
61035;BME280;46916;40.564;-7.958;2023-06-14T02:41:52;97438.09;;;18.10;80.16
61035;BME280;46916;40.564;-7.958;2023-06-14T02:43:53;97446.59;;;18.05;80.37
61035;BME280;46916;40.564;-7.958;2023-06-14T02:45:53;97443.75;;;18.07;80.50
61035;BME280;46916;40.564;-7.958;2023-06-14T02:47:55;97443.75;;;18.07;80.55
61035;BME280;46916;40.564;-7.958;2023-06-14T02:49:56;97440.94;;;18.09;80.52
61035;BME280;46916;40.564;-7.958;2023-06-14T02:51:57;97438.44;;;18.07;80.72
61035;BME280;46916;40.564;-7.958;2023-06-14T02:53:57;97440.09;;;18.08;80.76
61035;BME280;46916;40.564;-7.958;2023-06-14T02:55:58;97440.00;;;18.01;81.03
61035;BME280;46916;40.564;-7.958;2023-06-14T02:57:59;97439.53;;;17.98;81.46
61035;BME280;46916;40.564;-7.958;2023-06-14T03:00:00;97442.16;;;17.98;81.36
61035;BME280;46916;40.564;-7.958;2023-06-14T03:02:01;97433.06;;;18.00;81.44
61035;BME280;46916;40.564;-7.958;2023-06-14T03:04:04;97441.63;;;18.02;81.28
61035;BME280;46916;40.564;-7.958;2023-06-14T03:06:09;97427.09;;;17.98;81.37
61035;BME280;46916;40.564;-7.958;2023-06-14T03:08:14;97431.22;;;18.01;81.33
61035;BME280;46916;40.564;-7.958;2023-06-14T03:10:18;97431.38;;;17.99;81.24
61035;BME280;46916;40.564;-7.958;2023-06-14T03:12:20;97428.91;;;17.98;81.25
61035;BME280;46916;40.564;-7.958;2023-06-14T03:14:21;97435.84;;;17.99;81.42
61035;BME280;46916;40.564;-7.958;2023-06-14T03:16:22;97434.03;;;17.99;81.34
61035;BME280;46916;40.564;-7.958;2023-06-14T03:18:25;97424.25;;;18.00;81.21
61035;BME280;46916;40.564;-7.958;2023-06-14T03:20:27;97431.38;;;17.99;81.25
61035;BME280;46916;40.564;-7.958;2023-06-14T03:22:30;97434.84;;;18.00;81.14
61035;BME280;46916;40.564;-7.958;2023-06-14T03:24:33;97426.91;;;18.00;81.17
61035;BME280;46916;40.564;-7.958;2023-06-14T03:26:41;97433.22;;;17.99;81.21
61035;BME280;46916;40.564;-7.958;2023-06-14T03:28:45;97433.41;;;17.97;81.32
61035;BME280;46916;40.564;-7.958;2023-06-14T03:30:47;97425.59;;;17.96;81.32
61035;BME280;46916;40.564;-7.958;2023-06-14T03:32:49;97427.63;;;17.94;81.60
61035;BME280;46916;40.564;-7.958;2023-06-14T03:34:51;97421.66;;;17.92;81.64
61035;BME280;46916;40.564;-7.958;2023-06-14T03:36:56;97426.84;;;17.85;81.88
61035;BME280;46916;40.564;-7.958;2023-06-14T03:38:57;97427.19;;;17.82;82.06
61035;BME280;46916;40.564;-7.958;2023-06-14T03:40:58;97425.38;;;17.82;81.97
61035;BME280;46916;40.564;-7.958;2023-06-14T03:42:59;97425.38;;;17.82;82.02
61035;BME280;46916;40.564;-7.958;2023-06-14T03:45:00;97430.84;;;17.81;81.93
61035;BME280;46916;40.564;-7.958;2023-06-14T03:47:01;97428.38;;;17.79;82.12
61035;BME280;46916;40.564;-7.958;2023-06-14T03:49:03;97425.72;;;17.79;82.05
61035;BME280;46916;40.564;-7.958;2023-06-14T03:51:04;97422.25;;;17.79;82.12
61035;BME280;46916;40.564;-7.958;2023-06-14T03:53:05;97424.25;;;17.77;82.02
61035;BME280;46916;40.564;-7.958;2023-06-14T03:55:06;97415.50;;;17.76;81.98
61035;BME280;46916;40.564;-7.958;2023-06-14T03:57:08;97413.00;;;17.75;81.96
61035;BME280;46916;40.564;-7.958;2023-06-14T03:59:09;97422.63;;;17.76;81.92
61035;BME280;46916;40.564;-7.958;2023-06-14T04:01:10;97422.63;;;17.76;81.82
61035;BME280;46916;40.564;-7.958;2023-06-14T04:03:12;97423.59;;;17.75;82.00
61035;BME280;46916;40.564;-7.958;2023-06-14T04:05:16;97425.56;;;17.73;81.91
61035;BME280;46916;40.564;-7.958;2023-06-14T04:07:22;97424.91;;;17.71;82.00
61035;BME280;46916;40.564;-7.958;2023-06-14T04:09:24;97427.94;;;17.68;82.14
61035;BME280;46916;40.564;-7.958;2023-06-14T04:11:25;97421.97;;;17.66;82.00
61035;BME280;46916;40.564;-7.958;2023-06-14T04:13:26;97440.84;;;17.63;81.97
61035;BME280;46916;40.564;-7.958;2023-06-14T04:15:27;97435.56;;;17.63;82.07
61035;BME280;46916;40.564;-7.958;2023-06-14T04:17:29;97437.03;;;17.65;82.09
61035;BME280;46916;40.564;-7.958;2023-06-14T04:19:30;97433.22;;;17.68;82.09
61035;BME280;46916;40.564;-7.958;2023-06-14T04:21:31;97427.44;;;17.64;81.93
61035;BME280;46916;40.564;-7.958;2023-06-14T04:23:37;97435.22;;;17.66;81.89
61035;BME280;46916;40.564;-7.958;2023-06-14T04:25:38;97435.22;;;17.66;81.86
61035;BME280;46916;40.564;-7.958;2023-06-14T04:27:40;97429.91;;;17.66;81.83
61035;BME280;46916;40.564;-7.958;2023-06-14T04:29:42;97431.75;;;17.65;81.94
61035;BME280;46916;40.564;-7.958;2023-06-14T04:31:46;97430.91;;;17.65;81.89
61035;BME280;46916;40.564;-7.958;2023-06-14T04:33:48;97432.75;;;17.64;82.04
61035;BME280;46916;40.564;-7.958;2023-06-14T04:35:54;97436.38;;;17.63;82.20
61035;BME280;46916;40.564;-7.958;2023-06-14T04:37:56;97445.16;;;17.64;82.24
61035;BME280;46916;40.564;-7.958;2023-06-14T04:39:58;97445.16;;;17.64;82.38
61035;BME280;46916;40.564;-7.958;2023-06-14T04:41:58;97445.81;;;17.66;82.30
61035;BME280;46916;40.564;-7.958;2023-06-14T04:44:04;97451.09;;;17.66;82.47
61035;BME280;46916;40.564;-7.958;2023-06-14T04:46:10;97441.31;;;17.66;82.60
61035;BME280;46916;40.564;-7.958;2023-06-14T04:48:12;97447.44;;;17.67;82.51
61035;BME280;46916;40.564;-7.958;2023-06-14T04:50:13;97446.28;;;17.69;82.58
61035;BME280;46916;40.564;-7.958;2023-06-14T04:52:14;97447.28;;;17.68;82.65
61035;BME280;46916;40.564;-7.958;2023-06-14T04:54:18;97440.16;;;17.69;82.62
61035;BME280;46916;40.564;-7.958;2023-06-14T04:56:37;97451.78;;;17.68;82.59
61035;BME280;46916;40.564;-7.958;2023-06-14T04:58:38;97449.28;;;17.66;82.52
61035;BME280;46916;40.564;-7.958;2023-06-14T05:00:39;97453.56;;;17.67;82.34
61035;BME280;46916;40.564;-7.958;2023-06-14T05:02:39;97441.31;;;17.66;82.23
61035;BME280;46916;40.564;-7.958;2023-06-14T05:04:41;97445.16;;;17.64;82.07
61035;BME280;46916;40.564;-7.958;2023-06-14T05:06:42;97444.50;;;17.62;82.19
61035;BME280;46916;40.564;-7.958;2023-06-14T05:08:45;97450.97;;;17.59;81.94
61035;BME280;46916;40.564;-7.958;2023-06-14T05:10:47;97451.81;;;17.60;81.94
61035;BME280;46916;40.564;-7.958;2023-06-14T05:12:48;97446.66;;;17.58;82.02
61035;BME280;46916;40.564;-7.958;2023-06-14T05:14:50;97439.91;;;17.55;82.07
61035;BME280;46916;40.564;-7.958;2023-06-14T05:16:55;97445.84;;;17.57;82.26
61035;BME280;46916;40.564;-7.958;2023-06-14T05:18:55;97443.38;;;17.56;82.50
61035;BME280;46916;40.564;-7.958;2023-06-14T05:20:57;97438.72;;;17.58;82.44
61035;BME280;46916;40.564;-7.958;2023-06-14T05:22:57;97436.41;;;17.55;82.58
61035;BME280;46916;40.564;-7.958;2023-06-14T05:24:58;97445.66;;;17.59;82.52
61035;BME280;46916;40.564;-7.958;2023-06-14T05:26:59;97445.50;;;17.61;82.62
61035;BME280;46916;40.564;-7.958;2023-06-14T05:28:59;97444.50;;;17.62;82.90
61035;BME280;46916;40.564;-7.958;2023-06-14T05:31:02;97448.16;;;17.61;82.82
61035;BME280;46916;40.564;-7.958;2023-06-14T05:33:02;97447.34;;;17.60;83.11
61035;BME280;46916;40.564;-7.958;2023-06-14T05:35:04;97447.16;;;17.62;83.57
61035;BME280;46916;40.564;-7.958;2023-06-14T05:37:06;97461.22;;;17.62;83.45
61035;BME280;46916;40.564;-7.958;2023-06-14T05:39:06;97460.88;;;17.65;83.75
61035;BME280;46916;40.564;-7.958;2023-06-14T05:41:08;97464.34;;;17.66;83.85
61035;BME280;46916;40.564;-7.958;2023-06-14T05:43:09;97454.41;;;17.68;83.85
61035;BME280;46916;40.564;-7.958;2023-06-14T05:45:11;97457.88;;;17.68;83.82
61035;BME280;46916;40.564;-7.958;2023-06-14T05:47:11;97458.72;;;17.69;83.91
61035;BME280;46916;40.564;-7.958;2023-06-14T05:49:13;97463.34;;;17.67;83.82
61035;BME280;46916;40.564;-7.958;2023-06-14T05:51:14;97464.88;;;17.61;84.01
61035;BME280;46916;40.564;-7.958;2023-06-14T05:53:15;97466.84;;;17.59;84.14
61035;BME280;46916;40.564;-7.958;2023-06-14T05:55:16;97464.19;;;17.59;84.22
61035;BME280;46916;40.564;-7.958;2023-06-14T05:57:17;97462.75;;;17.56;83.93
61035;BME280;46916;40.564;-7.958;2023-06-14T05:59:18;97466.84;;;17.59;83.75
61035;BME280;46916;40.564;-7.958;2023-06-14T06:01:18;97463.38;;;17.58;83.70
61035;BME280;46916;40.564;-7.958;2023-06-14T06:03:19;97470.50;;;17.58;83.48
61035;BME280;46916;40.564;-7.958;2023-06-14T06:05:21;97465.19;;;17.58;83.20
61035;BME280;46916;40.564;-7.958;2023-06-14T06:07:22;97466.03;;;17.58;82.88
61035;BME280;46916;40.564;-7.958;2023-06-14T06:09:22;97473.34;;;17.56;82.55
61035;BME280;46916;40.564;-7.958;2023-06-14T06:11:23;97465.53;;;17.55;82.69
61035;BME280;46916;40.564;-7.958;2023-06-14T06:13:24;97472.84;;;17.53;82.42
61035;BME280;46916;40.564;-7.958;2023-06-14T06:15:25;97471.22;;;17.52;82.54
61035;BME280;46916;40.564;-7.958;2023-06-14T06:17:26;97466.06;;;17.50;82.47
61035;BME280;46916;40.564;-7.958;2023-06-14T06:19:27;97458.94;;;17.51;82.37
61035;BME280;46916;40.564;-7.958;2023-06-14T06:21:27;97469.72;;;17.49;82.29
61035;BME280;46916;40.564;-7.958;2023-06-14T06:23:28;97464.94;;;17.45;82.28
61035;BME280;46916;40.564;-7.958;2023-06-14T06:25:29;97472.69;;;17.46;82.64
61035;BME280;46916;40.564;-7.958;2023-06-14T06:27:32;97469.91;;;17.48;82.51
61035;BME280;46916;40.564;-7.958;2023-06-14T06:29:34;97461.97;;;17.48;82.53
61035;BME280;46916;40.564;-7.958;2023-06-14T06:31:35;97466.06;;;17.50;82.32
61035;BME280;46916;40.564;-7.958;2023-06-14T06:33:36;97476.00;;;17.48;82.41
61035;BME280;46916;40.564;-7.958;2023-06-14T06:35:37;97466.28;;;17.41;82.74
61035;BME280;46916;40.564;-7.958;2023-06-14T06:37:38;97470.25;;;17.45;82.48
61035;BME280;46916;40.564;-7.958;2023-06-14T06:39:39;97471.72;;;17.47;82.14
61035;BME280;46916;40.564;-7.958;2023-06-14T06:41:39;97467.41;;;17.46;82.09
61035;BME280;46916;40.564;-7.958;2023-06-14T06:43:40;97468.72;;;17.50;82.29
61035;BME280;46916;40.564;-7.958;2023-06-14T06:45:43;97475.69;;;17.51;82.04
61035;BME280;46916;40.564;-7.958;2023-06-14T06:47:44;97476.31;;;17.53;82.00
61035;BME280;46916;40.564;-7.958;2023-06-14T06:49:44;97469.19;;;17.54;81.78
61035;BME280;46916;40.564;-7.958;2023-06-14T06:51:59;97476.63;;;17.58;81.79
61035;BME280;46916;40.564;-7.958;2023-06-14T06:54:01;97477.91;;;17.63;81.78
61035;BME280;46916;40.564;-7.958;2023-06-14T06:56:01;97480.22;;;17.66;81.62
61035;BME280;46916;40.564;-7.958;2023-06-14T06:58:02;97475.13;;;17.64;81.49
61035;BME280;46916;40.564;-7.958;2023-06-14T07:00:06;97481.88;;;17.67;81.71
61035;BME280;46916;40.564;-7.958;2023-06-14T07:02:09;97484.91;;;17.64;81.83
61035;BME280;46916;40.564;-7.958;2023-06-14T07:04:10;97480.56;;;17.63;82.03
61035;BME280;46916;40.564;-7.958;2023-06-14T07:06:11;97484.91;;;17.64;81.82
61035;BME280;46916;40.564;-7.958;2023-06-14T07:08:12;97487.03;;;17.68;81.83
61035;BME280;46916;40.564;-7.958;2023-06-14T07:10:12;97486.84;;;17.70;81.82
61035;BME280;46916;40.564;-7.958;2023-06-14T07:12:13;97493.94;;;17.77;81.74
61035;BME280;46916;40.564;-7.958;2023-06-14T07:14:14;97502.38;;;17.81;81.96
61035;BME280;46916;40.564;-7.958;2023-06-14T07:16:15;97498.03;;;17.88;82.04
61035;BME280;46916;40.564;-7.958;2023-06-14T07:18:17;97508.28;;;17.91;82.01
61035;BME280;46916;40.564;-7.958;2023-06-14T07:20:17;97512.22;;;17.95;81.97
61035;BME280;46916;40.564;-7.958;2023-06-14T07:22:19;97503.69;;;18.08;83.02
61035;BME280;46916;40.564;-7.958;2023-06-14T07:24:20;97511.72;;;18.23;82.53
61035;BME280;46916;40.564;-7.958;2023-06-14T07:26:22;97510.78;;;18.39;81.88
61035;BME280;46916;40.564;-7.958;2023-06-14T07:28:23;97505.72;;;18.52;81.59
61035;BME280;46916;40.564;-7.958;2023-06-14T07:30:23;97513.06;;;18.65;80.81
61035;BME280;46916;40.564;-7.958;2023-06-14T07:32:26;97506.91;;;18.72;80.30
61035;BME280;46916;40.564;-7.958;2023-06-14T07:34:26;97517.63;;;18.79;79.95
61035;BME280;46916;40.564;-7.958;2023-06-14T07:36:27;97512.81;;;18.83;79.70
61035;BME280;46916;40.564;-7.958;2023-06-14T07:38:28;97511.44;;;18.87;79.29
61035;BME280;46916;40.564;-7.958;2023-06-14T07:40:28;97510.06;;;18.91;78.77
61035;BME280;46916;40.564;-7.958;2023-06-14T07:42:29;97522.78;;;18.95;78.56
61035;BME280;46916;40.564;-7.958;2023-06-14T07:44:30;97522.44;;;18.98;78.24
61035;BME280;46916;40.564;-7.958;2023-06-14T07:46:34;97523.72;;;19.02;77.93
61035;BME280;46916;40.564;-7.958;2023-06-14T07:48:35;97516.41;;;19.04;77.93
61035;BME280;46916;40.564;-7.958;2023-06-14T07:50:35;97516.03;;;19.08;77.86
61035;BME280;46916;40.564;-7.958;2023-06-14T07:52:36;97517.31;;;19.12;77.57
61035;BME280;46916;40.564;-7.958;2023-06-14T07:54:37;97521.81;;;19.11;77.55
61035;BME280;46916;40.564;-7.958;2023-06-14T07:56:37;97531.22;;;19.14;77.29
61035;BME280;46916;40.564;-7.958;2023-06-14T07:58:38;97530.41;;;19.13;76.96
61035;BME280;46916;40.564;-7.958;2023-06-14T08:00:39;97527.41;;;19.16;76.85
61035;BME280;46916;40.564;-7.958;2023-06-14T08:02:39;97536.00;;;19.18;76.80
61035;BME280;46916;40.564;-7.958;2023-06-14T08:04:40;97541.75;;;19.22;76.58
61035;BME280;46916;40.564;-7.958;2023-06-14T08:06:41;97537.28;;;19.22;76.67
61035;BME280;46916;40.564;-7.958;2023-06-14T08:08:45;97541.59;;;19.23;76.49
61035;BME280;46916;40.564;-7.958;2023-06-14T08:10:46;97544.25;;;19.23;76.50
61035;BME280;46916;40.564;-7.958;2023-06-14T08:12:47;97543.44;;;19.23;76.28
61035;BME280;46916;40.564;-7.958;2023-06-14T08:14:48;97550.38;;;19.24;76.21
61035;BME280;46916;40.564;-7.958;2023-06-14T08:16:49;97542.44;;;19.24;76.00
61035;BME280;46916;40.564;-7.958;2023-06-14T08:18:50;97544.25;;;19.23;76.00
61035;BME280;46916;40.564;-7.958;2023-06-14T08:20:51;97549.38;;;19.25;76.06
61035;BME280;46916;40.564;-7.958;2023-06-14T08:22:52;97550.66;;;19.29;75.81
61035;BME280;46916;40.564;-7.958;2023-06-14T08:24:56;97554.97;;;19.30;75.66
61035;BME280;46916;40.564;-7.958;2023-06-14T08:26:57;97550.66;;;19.29;75.44
61035;BME280;46916;40.564;-7.958;2023-06-14T08:29:01;97561.63;;;19.26;75.49
61035;BME280;46916;40.564;-7.958;2023-06-14T08:31:01;97557.34;;;19.25;75.82
61035;BME280;46916;40.564;-7.958;2023-06-14T08:33:03;97550.84;;;19.27;75.75
61035;BME280;46916;40.564;-7.958;2023-06-14T08:35:04;97555.34;;;19.27;76.07
61035;BME280;46916;40.564;-7.958;2023-06-14T08:37:05;97562.28;;;19.28;75.90
61035;BME280;46916;40.564;-7.958;2023-06-14T08:39:07;97560.94;;;19.32;75.71
61035;BME280;46916;40.564;-7.958;2023-06-14T08:41:11;97561.19;;;19.37;75.90
61035;BME280;46916;40.564;-7.958;2023-06-14T08:43:13;97551.22;;;19.39;75.63
61035;BME280;46916;40.564;-7.958;2023-06-14T08:45:14;97550.03;;;19.42;75.51
61035;BME280;46916;40.564;-7.958;2023-06-14T08:47:15;97549.31;;;19.48;75.16
61035;BME280;46916;40.564;-7.958;2023-06-14T08:49:18;97550.75;;;19.50;75.34
61035;BME280;46916;40.564;-7.958;2023-06-14T08:51:20;97545.63;;;19.49;75.13
61035;BME280;46916;40.564;-7.958;2023-06-14T08:53:23;97548.75;;;19.52;75.05
61035;BME280;46916;40.564;-7.958;2023-06-14T08:55:25;97544.72;;;19.57;75.05
61035;BME280;46916;40.564;-7.958;2023-06-14T08:57:28;97547.03;;;19.60;75.16
61035;BME280;46916;40.564;-7.958;2023-06-14T08:59:31;97545.84;;;19.62;75.09
61035;BME280;46916;40.564;-7.958;2023-06-14T09:01:37;97552.34;;;19.60;75.21
61035;BME280;46916;40.564;-7.958;2023-06-14T09:03:38;97542.53;;;19.60;75.30
61035;BME280;46916;40.564;-7.958;2023-06-14T09:05:41;97547.47;;;19.63;75.19
61035;BME280;46916;40.564;-7.958;2023-06-14T09:07:42;97544.00;;;19.63;75.26
61035;BME280;46916;40.564;-7.958;2023-06-14T09:09:43;97544.19;;;19.61;75.23
61035;BME280;46916;40.564;-7.958;2023-06-14T09:11:44;97541.72;;;19.60;75.28
61035;BME280;46916;40.564;-7.958;2023-06-14T09:13:46;97540.38;;;19.64;75.62
61035;BME280;46916;40.564;-7.958;2023-06-14T09:15:47;97532.66;;;19.69;75.56
61035;BME280;46916;40.564;-7.958;2023-06-14T09:17:47;97532.72;;;19.75;75.16
61035;BME280;46916;40.564;-7.958;2023-06-14T09:19:48;97531.19;;;19.81;75.24
61035;BME280;46916;40.564;-7.958;2023-06-14T09:21:49;97530.81;;;19.84;74.93
61035;BME280;46916;40.564;-7.958;2023-06-14T09:23:50;97529.53;;;19.80;74.87
61035;BME280;46916;40.564;-7.958;2023-06-14T09:25:51;97529.25;;;19.75;75.13
61035;BME280;46916;40.564;-7.958;2023-06-14T09:27:52;97522.66;;;19.71;75.54
61035;BME280;46916;40.564;-7.958;2023-06-14T09:29:53;97519.63;;;19.74;75.28
61035;BME280;46916;40.564;-7.958;2023-06-14T09:31:54;97527.41;;;19.75;75.01
61035;BME280;46916;40.564;-7.958;2023-06-14T09:33:55;97526.97;;;19.72;75.12
61035;BME280;46916;40.564;-7.958;2023-06-14T09:35:56;97536.75;;;19.71;75.20
61035;BME280;46916;40.564;-7.958;2023-06-14T09:37:57;97533.66;;;19.68;75.40
61035;BME280;46916;40.564;-7.958;2023-06-14T09:39:58;97531.63;;;19.70;75.32
61035;BME280;46916;40.564;-7.958;2023-06-14T09:41:59;97529.25;;;19.75;75.22
61035;BME280;46916;40.564;-7.958;2023-06-14T09:44:01;97530.53;;;19.79;75.28
61035;BME280;46916;40.564;-7.958;2023-06-14T09:46:03;97528.88;;;19.78;75.37
61035;BME280;46916;40.564;-7.958;2023-06-14T09:48:06;97533.84;;;19.81;75.48
61035;BME280;46916;40.564;-7.958;2023-06-14T09:50:08;97534.84;;;19.80;75.14
61035;BME280;46916;40.564;-7.958;2023-06-14T09:52:12;97530.06;;;19.75;75.07
61035;BME280;46916;40.564;-7.958;2023-06-14T09:54:15;97529.63;;;19.72;75.20
61035;BME280;46916;40.564;-7.958;2023-06-14T09:56:37;97530.06;;;19.75;75.22
61035;BME280;46916;40.564;-7.958;2023-06-14T09:58:39;97527.88;;;19.79;75.18
61035;BME280;46916;40.564;-7.958;2023-06-14T10:00:41;97525.75;;;19.89;75.07
61035;BME280;46916;40.564;-7.958;2023-06-14T10:02:42;97526.66;;;19.96;74.64
61035;BME280;46916;40.564;-7.958;2023-06-14T10:05:05;97532.50;;;20.07;74.46
61035;BME280;46916;40.564;-7.958;2023-06-14T10:07:07;97529.34;;;20.18;74.49
61035;BME280;46916;40.564;-7.958;2023-06-14T10:09:09;97532.91;;;20.25;74.48
61035;BME280;46916;40.564;-7.958;2023-06-14T10:11:12;97527.03;;;20.29;74.71
61035;BME280;46916;40.564;-7.958;2023-06-14T10:13:13;97526.63;;;20.33;74.07
61035;BME280;46916;40.564;-7.958;2023-06-14T10:17:41;97533.22;;;20.37;74.19
61035;BME280;46916;40.564;-7.958;2023-06-14T10:19:51;97530.00;;;20.41;74.15
61035;BME280;46916;40.564;-7.958;2023-06-14T10:22:09;97529.00;;;20.42;73.93
61035;BME280;46916;40.564;-7.958;2023-06-14T10:24:13;97528.16;;;20.42;74.08
61035;BME280;46916;40.564;-7.958;2023-06-14T10:26:23;97530.38;;;20.38;73.97
61035;BME280;46916;40.564;-7.958;2023-06-14T10:28:24;97522.41;;;20.38;74.01
61035;BME280;46916;40.564;-7.958;2023-06-14T10:30:25;97528.34;;;20.40;74.15
61035;BME280;46916;40.564;-7.958;2023-06-14T10:32:27;97526.13;;;20.44;73.96
61035;BME280;46916;40.564;-7.958;2023-06-14T10:34:31;97521.25;;;20.47;73.89
61035;BME280;46916;40.564;-7.958;2023-06-14T10:36:32;97527.88;;;20.51;73.99
61035;BME280;46916;40.564;-7.958;2023-06-14T10:38:36;97521.97;;;20.56;73.84
61035;BME280;46916;40.564;-7.958;2023-06-14T10:40:38;97520.41;;;20.62;73.81
61035;BME280;46916;40.564;-7.958;2023-06-14T10:42:51;97529.00;;;20.64;73.64
61035;BME280;46916;40.564;-7.958;2023-06-14T10:44:54;97525.97;;;20.67;73.68
61035;BME280;46916;40.564;-7.958;2023-06-14T10:47:00;97520.44;;;20.68;73.58
61035;BME280;46916;40.564;-7.958;2023-06-14T10:49:01;97526.44;;;20.70;73.60